sensor_id;sensor_type;location;lat;lon;timestamp;P1;durP1;ratioP1;P2;durP2;ratioP2
53714;SDS011;39608;55.630;37.864;2023-12-07T00:02:09;20.67;;;7.38;;
53714;SDS011;39608;55.630;37.864;2023-12-07T00:07:12;16.10;;;6.25;;
53714;SDS011;39608;55.630;37.864;2023-12-07T00:12:16;20.30;;;7.05;;
53714;SDS011;39608;55.630;37.864;2023-12-07T00:35:19;19.13;;;8.85;;
53714;SDS011;39608;55.630;37.864;2023-12-07T00:40:22;23.02;;;8.20;;
53714;SDS011;39608;55.630;37.864;2023-12-07T00:45:30;12.50;;;6.82;;
53714;SDS011;39608;55.630;37.864;2023-12-07T00:50:33;36.13;;;8.82;;
53714;SDS011;39608;55.630;37.864;2023-12-07T00:55:35;31.83;;;9.30;;
53714;SDS011;39608;55.630;37.864;2023-12-07T01:00:37;25.45;;;8.10;;
53714;SDS011;39608;55.630;37.864;2023-12-07T01:05:41;15.73;;;6.78;;
53714;SDS011;39608;55.630;37.864;2023-12-07T01:10:44;19.00;;;8.57;;
53714;SDS011;39608;55.630;37.864;2023-12-07T01:15:46;23.77;;;7.80;;
53714;SDS011;39608;55.630;37.864;2023-12-07T01:33:25;12.05;;;6.50;;
53714;SDS011;39608;55.630;37.864;2023-12-07T01:38:27;23.40;;;8.20;;
53714;SDS011;39608;55.630;37.864;2023-12-07T01:43:35;20.13;;;8.15;;
53714;SDS011;39608;55.630;37.864;2023-12-07T01:48:39;19.88;;;7.05;;
53714;SDS011;39608;55.630;37.864;2023-12-07T01:53:41;15.55;;;7.22;;
53714;SDS011;39608;55.630;37.864;2023-12-07T01:58:43;15.65;;;6.80;;
53714;SDS011;39608;55.630;37.864;2023-12-07T02:03:52;18.15;;;7.63;;
53714;SDS011;39608;55.630;37.864;2023-12-07T02:08:54;18.23;;;6.63;;
53714;SDS011;39608;55.630;37.864;2023-12-07T02:13:56;18.95;;;6.07;;
53714;SDS011;39608;55.630;37.864;2023-12-07T02:19:02;20.63;;;7.47;;
53714;SDS011;39608;55.630;37.864;2023-12-07T02:29:44;14.68;;;6.57;;
53714;SDS011;39608;55.630;37.864;2023-12-07T02:34:47;20.08;;;7.65;;
53714;SDS011;39608;55.630;37.864;2023-12-07T02:39:49;15.27;;;6.32;;
53714;SDS011;39608;55.630;37.864;2023-12-07T02:44:57;10.20;;;5.00;;
53714;SDS011;39608;55.630;37.864;2023-12-07T02:50:00;11.48;;;5.50;;
53714;SDS011;39608;55.630;37.864;2023-12-07T02:55:06;13.60;;;5.60;;
53714;SDS011;39608;55.630;37.864;2023-12-07T03:00:23;16.25;;;5.78;;
53714;SDS011;39608;55.630;37.864;2023-12-07T03:05:26;11.73;;;4.32;;
53714;SDS011;39608;55.630;37.864;2023-12-07T03:10:38;12.15;;;5.32;;
53714;SDS011;39608;55.630;37.864;2023-12-07T03:15:44;20.15;;;5.68;;
53714;SDS011;39608;55.630;37.864;2023-12-07T03:20:47;12.13;;;4.95;;
53714;SDS011;39608;55.630;37.864;2023-12-07T03:25:56;12.93;;;5.43;;
53714;SDS011;39608;55.630;37.864;2023-12-07T03:31:05;9.68;;;4.70;;
53714;SDS011;39608;55.630;37.864;2023-12-07T03:36:10;12.15;;;4.65;;
53714;SDS011;39608;55.630;37.864;2023-12-07T03:41:16;13.50;;;5.10;;
53714;SDS011;39608;55.630;37.864;2023-12-07T03:46:21;11.05;;;4.88;;
53714;SDS011;39608;55.630;37.864;2023-12-07T03:51:25;14.25;;;5.78;;
53714;SDS011;39608;55.630;37.864;2023-12-07T03:56:28;7.68;;;3.85;;
53714;SDS011;39608;55.630;37.864;2023-12-07T04:01:36;13.95;;;4.93;;
53714;SDS011;39608;55.630;37.864;2023-12-07T04:06:38;7.25;;;4.70;;
53714;SDS011;39608;55.630;37.864;2023-12-07T04:11:43;10.77;;;4.35;;
53714;SDS011;39608;55.630;37.864;2023-12-07T04:16:47;9.30;;;3.78;;
53714;SDS011;39608;55.630;37.864;2023-12-07T04:21:50;22.33;;;5.47;;
53714;SDS011;39608;55.630;37.864;2023-12-07T04:26:52;11.75;;;5.60;;
53714;SDS011;39608;55.630;37.864;2023-12-07T04:31:56;11.23;;;4.93;;
53714;SDS011;39608;55.630;37.864;2023-12-07T04:36:58;19.00;;;6.35;;
53714;SDS011;39608;55.630;37.864;2023-12-07T04:42:03;11.23;;;5.22;;
53714;SDS011;39608;55.630;37.864;2023-12-07T04:47:07;16.58;;;5.32;;
53714;SDS011;39608;55.630;37.864;2023-12-07T04:52:17;26.05;;;6.65;;
53714;SDS011;39608;55.630;37.864;2023-12-07T04:57:19;12.10;;;5.03;;
53714;SDS011;39608;55.630;37.864;2023-12-07T05:02:23;13.45;;;6.28;;
53714;SDS011;39608;55.630;37.864;2023-12-07T05:07:26;16.35;;;6.65;;
53714;SDS011;39608;55.630;37.864;2023-12-07T05:12:28;14.80;;;6.47;;
53714;SDS011;39608;55.630;37.864;2023-12-07T05:17:33;10.13;;;4.63;;
53714;SDS011;39608;55.630;37.864;2023-12-07T05:22:35;15.35;;;6.50;;
53714;SDS011;39608;55.630;37.864;2023-12-07T05:27:40;14.20;;;6.45;;
53714;SDS011;39608;55.630;37.864;2023-12-07T05:32:45;15.25;;;5.78;;
53714;SDS011;39608;55.630;37.864;2023-12-07T05:37:48;14.18;;;5.13;;
53714;SDS011;39608;55.630;37.864;2023-12-07T05:42:50;18.73;;;5.95;;
53714;SDS011;39608;55.630;37.864;2023-12-07T05:47:54;14.45;;;5.20;;
53714;SDS011;39608;55.630;37.864;2023-12-07T05:52:56;11.50;;;5.15;;
53714;SDS011;39608;55.630;37.864;2023-12-07T05:57:58;16.85;;;5.32;;
53714;SDS011;39608;55.630;37.864;2023-12-07T06:03:01;16.50;;;5.47;;
53714;SDS011;39608;55.630;37.864;2023-12-07T06:08:03;10.82;;;4.85;;
53714;SDS011;39608;55.630;37.864;2023-12-07T06:13:06;15.85;;;5.68;;
53714;SDS011;39608;55.630;37.864;2023-12-07T06:18:09;12.55;;;5.30;;
53714;SDS011;39608;55.630;37.864;2023-12-07T06:23:11;14.70;;;5.20;;
53714;SDS011;39608;55.630;37.864;2023-12-07T06:28:15;16.77;;;5.95;;
53714;SDS011;39608;55.630;37.864;2023-12-07T06:33:22;13.85;;;5.18;;
53714;SDS011;39608;55.630;37.864;2023-12-07T06:38:24;15.45;;;6.03;;
53714;SDS011;39608;55.630;37.864;2023-12-07T06:43:26;13.27;;;5.47;;
53714;SDS011;39608;55.630;37.864;2023-12-07T06:48:32;10.13;;;4.82;;
53714;SDS011;39608;55.630;37.864;2023-12-07T06:53:34;14.27;;;5.55;;
53714;SDS011;39608;55.630;37.864;2023-12-07T06:58:36;11.23;;;5.43;;
53714;SDS011;39608;55.630;37.864;2023-12-07T07:03:42;19.35;;;6.88;;
53714;SDS011;39608;55.630;37.864;2023-12-07T07:08:44;23.30;;;6.67;;
53714;SDS011;39608;55.630;37.864;2023-12-07T07:13:46;20.33;;;6.78;;
53714;SDS011;39608;55.630;37.864;2023-12-07T07:18:49;19.98;;;7.68;;
53714;SDS011;39608;55.630;37.864;2023-12-07T07:23:51;10.55;;;5.22;;
53714;SDS011;39608;55.630;37.864;2023-12-07T07:29:01;17.88;;;5.93;;
53714;SDS011;39608;55.630;37.864;2023-12-07T07:34:05;25.67;;;8.88;;
53714;SDS011;39608;55.630;37.864;2023-12-07T07:39:08;23.33;;;8.13;;
53714;SDS011;39608;55.630;37.864;2023-12-07T07:44:19;14.20;;;7.03;;
53714;SDS011;39608;55.630;37.864;2023-12-07T07:49:23;13.57;;;6.40;;
53714;SDS011;39608;55.630;37.864;2023-12-07T07:54:25;10.50;;;5.35;;
53714;SDS011;39608;55.630;37.864;2023-12-07T07:59:30;13.13;;;4.57;;
53714;SDS011;39608;55.630;37.864;2023-12-07T08:04:33;17.30;;;7.20;;
53714;SDS011;39608;55.630;37.864;2023-12-07T08:09:35;18.50;;;7.47;;
53714;SDS011;39608;55.630;37.864;2023-12-07T08:14:40;12.27;;;6.45;;
53714;SDS011;39608;55.630;37.864;2023-12-07T08:19:45;20.15;;;7.93;;
53714;SDS011;39608;55.630;37.864;2023-12-07T08:24:47;18.75;;;7.70;;
53714;SDS011;39608;55.630;37.864;2023-12-07T08:29:50;6.72;;;4.28;;
53714;SDS011;39608;55.630;37.864;2023-12-07T08:34:54;14.60;;;6.57;;
53714;SDS011;39608;55.630;37.864;2023-12-07T08:39:57;15.52;;;8.05;;
53714;SDS011;39608;55.630;37.864;2023-12-07T08:44:59;13.20;;;6.82;;
53714;SDS011;39608;55.630;37.864;2023-12-07T08:50:08;20.27;;;8.15;;
53714;SDS011;39608;55.630;37.864;2023-12-07T08:55:11;15.95;;;6.40;;
53714;SDS011;39608;55.630;37.864;2023-12-07T09:00:16;13.38;;;6.45;;
53714;SDS011;39608;55.630;37.864;2023-12-07T09:05:20;14.80;;;6.15;;
53714;SDS011;39608;55.630;37.864;2023-12-07T09:10:22;15.77;;;6.18;;
53714;SDS011;39608;55.630;37.864;2023-12-07T09:15:24;18.15;;;7.93;;
53714;SDS011;39608;55.630;37.864;2023-12-07T09:20:28;16.25;;;5.70;;
53714;SDS011;39608;55.630;37.864;2023-12-07T09:25:30;15.80;;;6.93;;
53714;SDS011;39608;55.630;37.864;2023-12-07T09:30:33;23.10;;;7.68;;
53714;SDS011;39608;55.630;37.864;2023-12-07T09:35:38;18.17;;;8.45;;
53714;SDS011;39608;55.630;37.864;2023-12-07T09:40:40;8.80;;;4.50;;
53714;SDS011;39608;55.630;37.864;2023-12-07T09:45:43;11.60;;;5.75;;
53714;SDS011;39608;55.630;37.864;2023-12-07T09:50:47;12.80;;;5.95;;
53714;SDS011;39608;55.630;37.864;2023-12-07T09:55:50;13.43;;;5.78;;
53714;SDS011;39608;55.630;37.864;2023-12-07T10:00:52;11.63;;;5.35;;
53714;SDS011;39608;55.630;37.864;2023-12-07T10:05:58;12.75;;;6.22;;
53714;SDS011;39608;55.630;37.864;2023-12-07T10:11:05;14.43;;;5.63;;
53714;SDS011;39608;55.630;37.864;2023-12-07T10:16:09;14.45;;;5.57;;
53714;SDS011;39608;55.630;37.864;2023-12-07T10:21:14;13.30;;;5.03;;
53714;SDS011;39608;55.630;37.864;2023-12-07T10:26:19;13.68;;;5.82;;
53714;SDS011;39608;55.630;37.864;2023-12-07T10:31:22;11.48;;;5.28;;
53714;SDS011;39608;55.630;37.864;2023-12-07T10:36:26;14.05;;;5.47;;
53714;SDS011;39608;55.630;37.864;2023-12-07T10:41:28;15.88;;;5.57;;
53714;SDS011;39608;55.630;37.864;2023-12-07T10:46:32;11.45;;;5.32;;
53714;SDS011;39608;55.630;37.864;2023-12-07T10:51:37;10.35;;;5.05;;
53714;SDS011;39608;55.630;37.864;2023-12-07T10:56:49;6.88;;;3.90;;
53714;SDS011;39608;55.630;37.864;2023-12-07T11:01:52;14.40;;;4.85;;
53714;SDS011;39608;55.630;37.864;2023-12-07T11:06:59;8.63;;;4.20;;
53714;SDS011;39608;55.630;37.864;2023-12-07T11:12:07;19.10;;;5.78;;
53714;SDS011;39608;55.630;37.864;2023-12-07T11:17:15;8.88;;;5.00;;
53714;SDS011;39608;55.630;37.864;2023-12-07T11:22:19;12.80;;;6.03;;
53714;SDS011;39608;55.630;37.864;2023-12-07T11:27:28;15.80;;;5.60;;
53714;SDS011;39608;55.630;37.864;2023-12-07T11:32:32;11.90;;;6.00;;
53714;SDS011;39608;55.630;37.864;2023-12-07T12:12:10;11.98;;;5.32;;
53714;SDS011;39608;55.630;37.864;2023-12-07T12:22:18;11.93;;;5.28;;
53714;SDS011;39608;55.630;37.864;2023-12-07T12:27:22;9.75;;;4.18;;
53714;SDS011;39608;55.630;37.864;2023-12-07T12:32:24;7.93;;;4.93;;
53714;SDS011;39608;55.630;37.864;2023-12-07T12:37:26;13.05;;;4.88;;
53714;SDS011;39608;55.630;37.864;2023-12-07T12:42:39;10.85;;;4.78;;
53714;SDS011;39608;55.630;37.864;2023-12-07T12:47:42;9.38;;;3.75;;
53714;SDS011;39608;55.630;37.864;2023-12-07T12:52:45;13.90;;;5.22;;
53714;SDS011;39608;55.630;37.864;2023-12-07T12:57:55;9.25;;;3.60;;
53714;SDS011;39608;55.630;37.864;2023-12-07T13:02:57;13.32;;;4.38;;
53714;SDS011;39608;55.630;37.864;2023-12-07T13:08:00;9.40;;;4.85;;
53714;SDS011;39608;55.630;37.864;2023-12-07T13:13:03;10.77;;;4.07;;
53714;SDS011;39608;55.630;37.864;2023-12-07T13:18:08;10.93;;;4.78;;
53714;SDS011;39608;55.630;37.864;2023-12-07T13:23:10;12.88;;;4.47;;
53714;SDS011;39608;55.630;37.864;2023-12-07T13:28:22;10.90;;;4.57;;
53714;SDS011;39608;55.630;37.864;2023-12-07T13:33:25;6.47;;;3.80;;
53714;SDS011;39608;55.630;37.864;2023-12-07T13:38:27;7.38;;;4.07;;
53714;SDS011;39608;55.630;37.864;2023-12-07T13:43:31;6.43;;;3.80;;
53714;SDS011;39608;55.630;37.864;2023-12-07T13:48:35;7.95;;;3.75;;
53714;SDS011;39608;55.630;37.864;2023-12-07T13:53:37;10.27;;;4.57;;
53714;SDS011;39608;55.630;37.864;2023-12-07T13:58:41;7.88;;;3.65;;
53714;SDS011;39608;55.630;37.864;2023-12-07T14:03:44;7.93;;;3.78;;
53714;SDS011;39608;55.630;37.864;2023-12-07T14:08:47;8.80;;;4.32;;
53714;SDS011;39608;55.630;37.864;2023-12-07T14:13:53;4.47;;;2.97;;
53714;SDS011;39608;55.630;37.864;2023-12-07T14:18:55;3.40;;;2.33;;
53714;SDS011;39608;55.630;37.864;2023-12-07T14:23:57;11.20;;;3.83;;
53714;SDS011;39608;55.630;37.864;2023-12-07T14:29:05;8.80;;;3.15;;
53714;SDS011;39608;55.630;37.864;2023-12-07T14:34:08;8.10;;;3.85;;
53714;SDS011;39608;55.630;37.864;2023-12-07T14:39:11;5.93;;;2.97;;
53714;SDS011;39608;55.630;37.864;2023-12-07T14:44:24;6.45;;;2.88;;
53714;SDS011;39608;55.630;37.864;2023-12-07T14:49:29;8.73;;;3.40;;
53714;SDS011;39608;55.630;37.864;2023-12-07T14:54:31;8.73;;;3.95;;
53714;SDS011;39608;55.630;37.864;2023-12-07T14:59:39;6.40;;;2.88;;
53714;SDS011;39608;55.630;37.864;2023-12-07T15:04:42;12.07;;;3.55;;
53714;SDS011;39608;55.630;37.864;2023-12-07T15:09:48;7.43;;;3.43;;
53714;SDS011;39608;55.630;37.864;2023-12-07T15:14:53;4.22;;;2.13;;
53714;SDS011;39608;55.630;37.864;2023-12-07T15:19:55;6.43;;;3.00;;
53714;SDS011;39608;55.630;37.864;2023-12-07T15:24:57;6.93;;;2.78;;
53714;SDS011;39608;55.630;37.864;2023-12-07T15:30:01;4.63;;;2.65;;
53714;SDS011;39608;55.630;37.864;2023-12-07T15:35:08;9.95;;;2.90;;
53714;SDS011;39608;55.630;37.864;2023-12-07T15:40:10;5.65;;;3.38;;
53714;SDS011;39608;55.630;37.864;2023-12-07T15:45:14;8.80;;;3.75;;
53714;SDS011;39608;55.630;37.864;2023-12-07T15:50:16;3.83;;;2.47;;
53714;SDS011;39608;55.630;37.864;2023-12-07T15:55:19;7.88;;;3.05;;
53714;SDS011;39608;55.630;37.864;2023-12-07T16:00:23;6.63;;;2.53;;
53714;SDS011;39608;55.630;37.864;2023-12-07T16:05:28;5.82;;;3.25;;
53714;SDS011;39608;55.630;37.864;2023-12-07T16:10:32;7.65;;;3.03;;
53714;SDS011;39608;55.630;37.864;2023-12-07T16:15:37;7.63;;;3.88;;
53714;SDS011;39608;55.630;37.864;2023-12-07T16:20:40;6.43;;;3.63;;
53714;SDS011;39608;55.630;37.864;2023-12-07T16:25:42;10.02;;;4.30;;
53714;SDS011;39608;55.630;37.864;2023-12-07T16:30:55;10.80;;;3.28;;
53714;SDS011;39608;55.630;37.864;2023-12-07T16:35:59;5.20;;;2.95;;
53714;SDS011;39608;55.630;37.864;2023-12-07T16:41:08;7.00;;;3.28;;
53714;SDS011;39608;55.630;37.864;2023-12-07T16:46:12;3.60;;;2.20;;
53714;SDS011;39608;55.630;37.864;2023-12-07T16:51:14;6.97;;;3.47;;
53714;SDS011;39608;55.630;37.864;2023-12-07T16:56:18;9.73;;;3.70;;
53714;SDS011;39608;55.630;37.864;2023-12-07T17:01:22;5.32;;;3.13;;
53714;SDS011;39608;55.630;37.864;2023-12-07T17:06:25;6.15;;;3.35;;
53714;SDS011;39608;55.630;37.864;2023-12-07T17:11:29;9.50;;;3.63;;
53714;SDS011;39608;55.630;37.864;2023-12-07T17:16:42;3.28;;;2.55;;
53714;SDS011;39608;55.630;37.864;2023-12-07T17:21:50;9.60;;;2.40;;
53714;SDS011;39608;55.630;37.864;2023-12-07T17:27:02;4.53;;;2.92;;
53714;SDS011;39608;55.630;37.864;2023-12-07T17:32:17;6.43;;;3.15;;
53714;SDS011;39608;55.630;37.864;2023-12-07T17:37:19;4.20;;;2.75;;
53714;SDS011;39608;55.630;37.864;2023-12-07T17:42:22;5.55;;;2.42;;
53714;SDS011;39608;55.630;37.864;2023-12-07T17:47:29;6.55;;;3.10;;
53714;SDS011;39608;55.630;37.864;2023-12-07T17:52:32;6.05;;;2.42;;
53714;SDS011;39608;55.630;37.864;2023-12-07T17:57:37;8.75;;;3.50;;
53714;SDS011;39608;55.630;37.864;2023-12-07T18:02:43;8.25;;;3.85;;
53714;SDS011;39608;55.630;37.864;2023-12-07T18:07:45;9.60;;;2.80;;
53714;SDS011;39608;55.630;37.864;2023-12-07T18:12:48;6.38;;;3.00;;
53714;SDS011;39608;55.630;37.864;2023-12-07T18:17:52;7.15;;;3.03;;
53714;SDS011;39608;55.630;37.864;2023-12-07T18:22:58;7.72;;;2.83;;
53714;SDS011;39608;55.630;37.864;2023-12-07T18:28:01;1.77;;;1.35;;
53714;SDS011;39608;55.630;37.864;2023-12-07T18:33:06;6.55;;;2.88;;
53714;SDS011;39608;55.630;37.864;2023-12-07T18:38:09;3.17;;;2.42;;
53714;SDS011;39608;55.630;37.864;2023-12-07T18:43:13;7.95;;;3.15;;
53714;SDS011;39608;55.630;37.864;2023-12-07T18:48:18;5.85;;;2.95;;
53714;SDS011;39608;55.630;37.864;2023-12-07T18:53:21;3.95;;;2.40;;
53714;SDS011;39608;55.630;37.864;2023-12-07T18:58:26;5.10;;;3.03;;
53714;SDS011;39608;55.630;37.864;2023-12-07T19:03:34;4.13;;;2.80;;
53714;SDS011;39608;55.630;37.864;2023-12-07T19:08:36;8.25;;;3.13;;
53714;SDS011;39608;55.630;37.864;2023-12-07T19:13:39;5.28;;;2.60;;
53714;SDS011;39608;55.630;37.864;2023-12-07T19:18:46;9.55;;;3.50;;
53714;SDS011;39608;55.630;37.864;2023-12-07T19:23:48;7.80;;;3.30;;
53714;SDS011;39608;55.630;37.864;2023-12-07T19:28:54;7.07;;;3.47;;
53714;SDS011;39608;55.630;37.864;2023-12-07T19:33:58;3.35;;;1.85;;
53714;SDS011;39608;55.630;37.864;2023-12-07T19:39:00;5.90;;;3.25;;
53714;SDS011;39608;55.630;37.864;2023-12-07T19:44:03;7.25;;;2.67;;
53714;SDS011;39608;55.630;37.864;2023-12-07T19:49:15;5.13;;;2.83;;
53714;SDS011;39608;55.630;37.864;2023-12-07T19:54:40;8.32;;;3.55;;
53714;SDS011;39608;55.630;37.864;2023-12-07T20:00:28;5.78;;;2.78;;
53714;SDS011;39608;55.630;37.864;2023-12-07T20:05:55;6.20;;;2.75;;
53714;SDS011;39608;55.630;37.864;2023-12-07T20:11:29;5.23;;;2.47;;
53714;SDS011;39608;55.630;37.864;2023-12-07T20:16:41;4.57;;;2.40;;
53714;SDS011;39608;55.630;37.864;2023-12-07T20:21:50;4.45;;;2.58;;
53714;SDS011;39608;55.630;37.864;2023-12-07T20:26:57;6.18;;;3.42;;
53714;SDS011;39608;55.630;37.864;2023-12-07T20:32:24;4.35;;;2.58;;
53714;SDS011;39608;55.630;37.864;2023-12-07T22:08:55;2.60;;;2.00;;
